Time;durP1;ratioP1;P1;durP2;ratioP2;P2;SDS_P1;SDS_P2;PMS_P1;PMS_P2;Temp;Humidity;BMP_temperature;BMP_pressure;BME280_temperature;BME280_humidity;BME280_pressure;Samples;Min_cycle;Max_cycle;Signal;HPM_P1;HPM_P2
2021/04/20 00:01:51;;;;;;;21.33;13.55;;;6.90;99.90;;;;;;5036367;28;20474;-81
2021/04/20 00:04:16;;;;;;;15.98;10.95;;;6.80;99.90;;;;;;5036348;28;20018;-81
2021/04/20 00:06:42;;;;;;;22.23;14.52;;;6.80;99.90;;;;;;5036488;28;20052;-81
2021/04/20 00:09:09;;;;;;;16.38;11.68;;;6.90;99.90;;;;;;5018408;28;20031;-82
2021/04/20 00:11:39;;;;;;;17.27;11.88;;;6.90;99.90;;;;;;5036148;28;20021;-82
2021/04/20 00:14:06;;;;;;;19.42;12.82;;;7.00;99.90;;;;;;5036653;28;20450;-82
2021/04/20 00:16:32;;;;;;;20.77;14.07;;;7.00;99.90;;;;;;5018408;28;20392;-82
2021/04/20 00:18:58;;;;;;;22.98;15.52;;;6.80;99.90;;;;;;5018040;28;20109;-82
2021/04/20 00:21:23;;;;;;;17.95;11.80;;;6.80;99.90;;;;;;5035161;28;20040;-82
2021/04/20 00:23:49;;;;;;;18.00;11.55;;;6.80;99.90;;;;;;5018234;28;20079;-82
2021/04/20 00:26:15;;;;;;;25.05;15.30;;;6.80;99.90;;;;;;5018181;28;20032;-82
2021/04/20 00:28:41;;;;;;;16.67;11.50;;;6.80;99.90;;;;;;5036159;28;20108;-82
2021/04/20 00:31:07;;;;;;;19.27;12.02;;;6.80;99.90;;;;;;5018080;28;20129;-82
2021/04/20 00:33:32;;;;;;;16.27;10.77;;;6.80;99.90;;;;;;5018081;28;20116;-82
2021/04/20 00:35:58;;;;;;;21.15;12.85;;;6.90;99.90;;;;;;5017886;28;20030;-82
2021/04/20 00:38:24;;;;;;;20.23;13.02;;;6.80;99.90;;;;;;5017927;28;20385;-82
2021/04/20 00:40:50;;;;;;;21.35;14.32;;;6.90;99.90;;;;;;5017918;28;20025;-82
2021/04/20 00:43:15;;;;;;;15.82;10.27;;;6.80;99.90;;;;;;5035378;28;20552;-82
2021/04/20 00:45:43;;;;;;;16.20;10.98;;;6.90;99.90;;;;;;5035503;28;20148;-82
2021/04/20 00:48:09;;;;;;;14.00;9.63;;;6.90;99.90;;;;;;5036076;28;20029;-82
2021/04/20 00:50:38;;;;;;;15.82;12.15;;;6.90;99.90;;;;;;5017673;28;20033;-82
2021/04/20 00:53:04;;;;;;;23.20;14.27;;;6.90;99.90;;;;;;5017680;28;20029;-82
2021/04/20 00:55:31;;;;;;;20.95;12.88;;;6.70;99.90;;;;;;5035263;28;20033;-82
2021/04/20 00:57:57;;;;;;;21.98;14.63;;;6.70;99.90;;;;;;5017551;28;20022;-82
2021/04/20 01:00:31;;;;;;;21.98;13.48;;;6.60;99.90;;;;;;5035251;28;20024;-82
2021/04/20 01:02:57;;;;;;;18.33;10.98;;;6.60;99.90;;;;;;5017536;28;20057;-82
2021/04/20 01:05:34;;;;;;;17.67;11.95;;;6.50;99.90;;;;;;5017418;28;20021;-82
2021/04/20 01:08:13;;;;;;;19.20;13.18;;;6.50;99.90;;;;;;5017464;28;20021;-82
2021/04/20 01:10:45;;;;;;;18.38;12.75;;;6.40;99.90;;;;;;5035173;28;20032;-82
2021/04/20 01:13:12;;;;;;;23.67;15.82;;;6.40;99.90;;;;;;5017235;28;20392;-82
2021/04/20 01:15:42;;;;;;;20.83;13.02;;;6.30;99.90;;;;;;5035195;28;20144;-82
2021/04/20 01:18:14;;;;;;;19.42;13.25;;;6.40;99.90;;;;;;5034955;28;20469;-82
2021/04/20 01:20:42;;;;;;;32.30;17.38;;;6.40;99.90;;;;;;5017696;28;20112;-82
2021/04/20 01:23:11;;;;;;;37.08;19.52;;;6.30;99.90;;;;;;5017079;28;20033;-82
2021/04/20 01:25:37;;;;;;;24.27;14.30;;;6.20;99.90;;;;;;5034803;28;20052;-82
2021/04/20 01:28:03;;;;;;;24.95;14.55;;;6.10;99.90;;;;;;5000658;28;20393;-82
2021/04/20 01:30:29;;;;;;;18.70;13.00;;;6.10;99.90;;;;;;5016833;28;20021;-82
2021/04/20 01:32:54;;;;;;;14.88;9.43;;;6.00;99.90;;;;;;5034323;28;20061;-82
2021/04/20 01:35:20;;;;;;;22.02;13.30;;;6.20;99.90;;;;;;5034792;28;20040;-81
2021/04/20 01:37:46;;;;;;;21.90;14.50;;;6.30;99.90;;;;;;5016717;28;20021;-82
2021/04/20 01:40:12;;;;;;;14.93;10.43;;;6.20;99.90;;;;;;5016731;28;20109;-82
2021/04/20 01:42:39;;;;;;;16.05;11.05;;;6.20;99.90;;;;;;5034209;28;20036;-82
2021/04/20 01:45:06;;;;;;;19.48;11.32;;;6.10;99.90;;;;;;5016669;28;20025;-82
2021/04/20 01:47:32;;;;;;;15.63;11.82;;;6.10;99.90;;;;;;5016542;28;20063;-81
2021/04/20 01:50:00;;;;;;;19.95;13.57;;;6.20;99.90;;;;;;5034290;28;20071;-81
2021/04/20 01:52:26;;;;;;;24.77;14.82;;;6.30;99.90;;;;;;5034288;28;20021;-81
2021/04/20 01:54:52;;;;;;;22.27;14.27;;;6.30;99.90;;;;;;5034183;28;20032;-81
2021/04/20 01:57:18;;;;;;;17.55;11.15;;;6.30;99.90;;;;;;5016342;28;20030;-81
2021/04/20 01:59:44;;;;;;;17.92;12.57;;;6.30;99.90;;;;;;5034412;28;20032;-82
2021/04/20 02:02:10;;;;;;;20.65;13.77;;;6.30;99.90;;;;;;5034334;28;20026;-81
2021/04/20 02:04:36;;;;;;;16.75;11.55;;;6.40;99.90;;;;;;5034107;28;20026;-81
2021/04/20 02:07:02;;;;;;;19.52;13.45;;;6.40;99.90;;;;;;5016291;28;20030;-81
2021/04/20 02:09:28;;;;;;;25.92;14.65;;;6.30;99.90;;;;;;5016178;28;20067;-81
2021/04/20 02:11:54;;;;;;;20.48;13.10;;;6.30;99.90;;;;;;5016203;28;20068;-81
2021/04/20 02:14:19;;;;;;;18.25;12.45;;;6.30;99.90;;;;;;5016204;28;20021;-81
2021/04/20 02:16:45;;;;;;;33.95;16.00;;;6.20;99.90;;;;;;5033783;28;20028;-82
2021/04/20 02:19:13;;;;;;;52.95;17.55;;;6.20;99.90;;;;;;5033801;28;20033;-81
2021/04/20 02:21:40;;;;;;;44.80;16.60;;;6.20;99.90;;;;;;5016042;28;20362;-81
2021/04/20 02:24:13;;;;;;;23.63;12.15;;;6.20;99.90;;;;;;5015991;28;20392;-81
2021/04/20 02:26:40;;;;;;;19.33;13.05;;;6.20;99.90;;;;;;5033757;28;20021;-81
2021/04/20 02:29:08;;;;;;;37.90;13.82;;;6.30;99.90;;;;;;5015942;28;20036;-81
2021/04/20 02:31:39;;;;;;;29.20;14.27;;;6.20;99.90;;;;;;5033618;28;20069;-81
2021/04/20 02:34:06;;;;;;;73.88;13.30;;;6.30;99.90;;;;;;5033888;28;20421;-81
2021/04/20 02:36:36;;;;;;;17.33;11.57;;;6.30;99.90;;;;;;5015710;28;20032;-81
2021/04/20 02:39:04;;;;;;;39.42;11.05;;;6.20;99.90;;;;;;5033733;28;20100;-81
2021/04/20 02:41:30;;;;;;;51.33;11.82;;;6.30;99.90;;;;;;5033483;28;20091;-82
2021/04/20 02:43:55;;;;;;;160.57;12.55;;;6.20;99.90;;;;;;5032512;28;20107;-81
2021/04/20 02:46:21;;;;;;;18.75;11.25;;;6.20;99.90;;;;;;5033695;28;20033;-81
2021/04/20 02:48:49;;;;;;;50.47;11.68;;;6.20;99.90;;;;;;5033346;28;20021;-81
2021/04/20 02:51:15;;;;;;;50.42;12.43;;;6.10;99.90;;;;;;5033607;28;20409;-81
2021/04/20 02:53:43;;;;;;;39.20;13.18;;;6.10;99.90;;;;;;5033340;28;20489;-82
2021/04/20 02:56:12;;;;;;;47.17;11.05;;;6.10;99.90;;;;;;5015853;28;20064;-81
2021/04/20 02:58:38;;;;;;;41.03;10.63;;;6.10;99.90;;;;;;5033270;28;20060;-81
2021/04/20 03:01:17;;;;;;;73.28;12.88;;;6.00;99.90;;;;;;5015598;28;20116;-81
2021/04/20 03:03:46;;;;;;;33.00;10.50;;;6.00;99.90;;;;;;5033592;28;20025;-81
2021/04/20 03:06:12;;;;;;;27.08;10.25;;;6.00;99.90;;;;;;5033277;28;20021;-81
2021/04/20 03:08:41;;;;;;;41.63;10.85;;;6.10;99.90;;;;;;5033209;28;20064;-81
2021/04/20 03:11:14;;;;;;;40.05;10.55;;;6.00;99.90;;;;;;5015410;28;20033;-81
2021/04/20 03:13:40;;;;;;;22.02;9.43;;;6.00;99.90;;;;;;5015535;28;20465;-81
2021/04/20 03:16:07;;;;;;;13.50;8.88;;;6.10;99.90;;;;;;5033284;28;20116;-81
2021/04/20 03:18:33;;;;;;;20.52;9.65;;;6.10;99.90;;;;;;5015395;28;20026;-81
2021/04/20 03:21:08;;;;;;;32.45;10.35;;;6.00;99.90;;;;;;5015395;28;20072;-81
2021/04/20 03:23:34;;;;;;;41.40;10.85;;;6.00;99.90;;;;;;5015393;28;20029;-81
2021/04/20 03:26:03;;;;;;;35.25;10.18;;;6.00;99.90;;;;;;5015257;28;20036;-81
2021/04/20 03:28:30;;;;;;;19.95;8.35;;;5.90;99.90;;;;;;5015262;28;20029;-81
2021/04/20 03:30:59;;;;;;;17.80;10.07;;;5.80;99.90;;;;;;5032944;28;20053;-81
2021/04/20 03:33:30;;;;;;;14.60;9.60;;;5.90;99.90;;;;;;5015212;28;20025;-81
2021/04/20 03:36:24;;;;;;;10.50;7.88;;;5.70;99.90;;;;;;5033459;28;20053;-81
2021/04/20 03:39:14;;;;;;;16.80;8.87;;;5.80;99.90;;;;;;5029686;28;20033;-81
2021/04/20 03:42:03;;;;;;;9.98;7.93;;;5.80;99.90;;;;;;5015265;28;20271;-81
2021/04/20 03:44:41;;;;;;;14.80;8.05;;;5.80;99.90;;;;;;5014207;28;20167;-81
2021/04/20 03:47:20;;;;;;;27.40;8.30;;;5.70;99.90;;;;;;5033643;28;20060;-82
2021/04/20 03:49:49;;;;;;;9.48;7.63;;;5.60;99.90;;;;;;5033139;28;20030;-81
2021/04/20 03:52:29;;;;;;;10.55;7.90;;;5.70;99.90;;;;;;5032917;28;20037;-81
2021/04/20 03:54:58;;;;;;;25.67;7.38;;;5.70;99.90;;;;;;5034583;28;20520;-82
2021/04/20 03:57:27;;;;;;;13.57;7.43;;;5.70;99.90;;;;;;5018592;28;20075;-81
2021/04/20 03:59:55;;;;;;;11.65;7.00;;;5.70;99.90;;;;;;5036422;28;20393;-81
2021/04/20 04:02:21;;;;;;;15.75;7.90;;;5.70;99.90;;;;;;5036317;28;20021;-81
2021/04/20 04:04:48;;;;;;;10.93;7.45;;;5.70;99.90;;;;;;5036380;28;20112;-81
2021/04/20 04:07:17;;;;;;;19.42;7.60;;;5.70;99.90;;;;;;5018573;28;20436;-81
2021/04/20 04:09:45;;;;;;;17.02;7.63;;;5.70;99.90;;;;;;5036236;28;20084;-81
2021/04/20 04:12:14;;;;;;;18.42;7.22;;;5.60;99.90;;;;;;5018518;28;20087;-81
2021/04/20 04:14:40;;;;;;;16.77;7.75;;;5.60;99.90;;;;;;5019266;28;20499;-81
2021/04/20 04:17:08;;;;;;;8.27;6.90;;;5.70;99.90;;;;;;5018263;28;20129;-81
2021/04/20 04:19:42;;;;;;;13.20;7.13;;;5.60;99.90;;;;;;5018323;28;20017;-81
2021/04/20 04:22:13;;;;;;;8.00;6.80;;;5.60;99.90;;;;;;5018285;28;20381;-81
2021/04/20 04:24:49;;;;;;;10.57;7.43;;;5.80;99.90;;;;;;5018198;28;20018;-81
2021/04/20 04:27:18;;;;;;;20.67;6.72;;;5.70;99.90;;;;;;5018212;28;20021;-82
2021/04/20 04:29:46;;;;;;;16.50;7.75;;;5.60;99.90;;;;;;5035873;28;20381;-82
2021/04/20 04:32:16;;;;;;;9.30;7.65;;;5.50;99.90;;;;;;5035796;28;20079;-82
2021/04/20 04:34:43;;;;;;;9.90;7.15;;;5.50;99.90;;;;;;5017957;28;20030;-81
2021/04/20 04:37:09;;;;;;;10.95;7.97;;;5.20;99.90;;;;;;5035672;28;20017;-81
2021/04/20 04:39:35;;;;;;;11.35;7.43;;;5.20;99.90;;;;;;5017817;28;20025;-81
2021/04/20 04:42:01;;;;;;;8.77;6.22;;;5.30;99.90;;;;;;5035895;28;20384;-81
2021/04/20 04:44:27;;;;;;;12.57;7.75;;;5.30;99.90;;;;;;5017620;28;20045;-81
2021/04/20 04:46:53;;;;;;;15.73;7.10;;;5.30;99.90;;;;;;5017778;28;20029;-82
2021/04/20 04:49:20;;;;;;;9.88;6.57;;;5.20;99.90;;;;;;5017719;28;20476;-81
2021/04/20 04:51:48;;;;;;;9.10;6.88;;;5.00;99.90;;;;;;5017965;28;20041;-81
2021/04/20 04:54:16;;;;;;;11.57;7.13;;;5.10;99.90;;;;;;5017626;28;20096;-81
2021/04/20 04:56:43;;;;;;;12.82;9.05;;;5.30;99.90;;;;;;5035579;28;20444;-81
2021/04/20 04:59:18;;;;;;;9.95;8.07;;;5.10;99.90;;;;;;5017568;28;20112;-82
2021/04/20 05:01:45;;;;;;;10.30;6.88;;;4.80;99.90;;;;;;5035308;28;20067;-82
2021/04/20 05:04:12;;;;;;;17.70;6.53;;;4.90;99.90;;;;;;5017424;28;20036;-81
2021/04/20 05:06:48;;;;;;;15.40;7.32;;;4.90;99.90;;;;;;5016681;28;20346;-81
2021/04/20 05:09:16;;;;;;;9.45;6.93;;;4.90;99.90;;;;;;5017375;28;20060;-81
2021/04/20 05:11:43;;;;;;;8.02;6.78;;;4.90;99.90;;;;;;5035052;28;20104;-81
2021/04/20 05:14:10;;;;;;;33.03;7.90;;;4.80;99.90;;;;;;5017184;28;20029;-81
2021/04/20 05:16:36;;;;;;;13.48;7.63;;;4.80;99.90;;;;;;5017164;28;20037;-81
2021/04/20 05:19:07;;;;;;;10.30;6.82;;;4.80;99.90;;;;;;5034995;28;20017;-81
2021/04/20 05:21:34;;;;;;;12.27;6.43;;;5.00;99.90;;;;;;5017119;28;20464;-81
2021/04/20 05:24:00;;;;;;;12.10;6.68;;;5.20;99.90;;;;;;5017169;28;20025;-81
2021/04/20 05:26:27;;;;;;;7.95;6.18;;;5.30;99.90;;;;;;5016952;28;20048;-81
2021/04/20 05:28:56;;;;;;;34.25;8.55;;;5.20;99.90;;;;;;5016976;28;20080;-81
2021/04/20 05:31:21;;;;;;;17.92;9.45;;;5.20;99.90;;;;;;5017493;28;20139;-82
2021/04/20 05:34:04;;;;;;;11.52;6.82;;;5.20;99.90;;;;;;5016947;28;20061;-81
2021/04/20 05:36:30;;;;;;;11.43;6.70;;;5.20;99.90;;;;;;5016873;28;20033;-81
2021/04/20 05:38:58;;;;;;;10.93;6.78;;;5.40;99.90;;;;;;5016711;28;20044;-81
2021/04/20 05:41:29;;;;;;;12.10;6.63;;;5.30;99.90;;;;;;5016770;28;20469;-81
2021/04/20 05:43:57;;;;;;;8.00;6.50;;;5.40;99.90;;;;;;5016513;28;20045;-81
2021/04/20 05:46:24;;;;;;;8.43;6.40;;;5.40;99.90;;;;;;5016633;28;20068;-81
2021/04/20 05:48:51;;;;;;;10.02;6.93;;;5.30;99.90;;;;;;5016679;28;20025;-81
2021/04/20 05:51:18;;;;;;;7.45;6.13;;;5.40;99.90;;;;;;5016644;28;20125;-81
2021/04/20 05:53:48;;;;;;;8.40;6.32;;;5.40;99.90;;;;;;5034421;28;20031;-81
2021/04/20 05:56:14;;;;;;;10.63;6.13;;;5.50;99.90;;;;;;5034166;28;20030;-81
2021/04/20 05:58:40;;;;;;;9.60;6.70;;;5.60;99.90;;;;;;5034210;28;20492;-81
2021/04/20 06:01:06;;;;;;;8.15;6.57;;;5.70;99.90;;;;;;5034404;28;20036;-81
2021/04/20 06:03:34;;;;;;;9.23;6.30;;;5.70;99.90;;;;;;5034330;28;20018;-81
2021/04/20 06:06:04;;;;;;;9.35;7.28;;;5.80;99.90;;;;;;5016325;28;20088;-81
2021/04/20 06:08:34;;;;;;;9.23;6.68;;;5.80;99.90;;;;;;5033963;28;20049;-81
2021/04/20 06:11:02;;;;;;;7.90;6.10;;;5.80;99.90;;;;;;5033962;28;20029;-81
2021/04/20 06:13:28;;;;;;;8.55;6.40;;;5.80;99.90;;;;;;5034218;28;20037;-81
2021/04/20 06:15:57;;;;;;;9.40;6.40;;;5.80;99.90;;;;;;5016128;28;20032;-81
2021/04/20 06:18:24;;;;;;;8.98;6.63;;;5.90;99.90;;;;;;5033791;28;20022;-81
2021/04/20 06:20:53;;;;;;;8.90;6.05;;;5.80;99.90;;;;;;5033835;28;20104;-81
2021/04/20 06:23:20;;;;;;;7.53;5.55;;;5.90;99.90;;;;;;5016017;28;20049;-81
2021/04/20 06:25:46;;;;;;;8.95;6.65;;;6.20;99.90;;;;;;5015934;28;20021;-81
2021/04/20 06:28:13;;;;;;;8.65;6.53;;;6.20;99.90;;;;;;5015982;28;20531;-81
2021/04/20 06:30:40;;;;;;;7.80;6.50;;;6.10;99.90;;;;;;5033609;28;20022;-81
2021/04/20 06:33:07;;;;;;;7.20;5.72;;;6.20;99.90;;;;;;5015868;28;20110;-81
2021/04/20 06:35:33;;;;;;;8.23;5.90;;;6.30;99.90;;;;;;5033477;28;20022;-81
2021/04/20 06:38:00;;;;;;;8.30;6.72;;;6.30;99.90;;;;;;5016051;28;20029;-81
2021/04/20 06:40:36;;;;;;;10.95;8.35;;;6.30;99.90;;;;;;5015794;28;20044;-81
2021/04/20 06:43:04;;;;;;;11.00;8.70;;;6.30;99.90;;;;;;5015623;28;20053;-81
2021/04/20 06:46:01;;;;;;;11.13;7.68;;;6.30;99.90;;;;;;5015724;28;20436;-81
2021/04/20 06:48:54;;;;;;;10.13;7.15;;;6.50;99.90;;;;;;5033726;28;20021;-81
2021/04/20 06:51:22;;;;;;;8.23;6.13;;;6.60;99.90;;;;;;5015663;28;20056;-81
2021/04/20 06:53:53;;;;;;;12.70;8.23;;;6.60;99.90;;;;;;5033646;28;20098;-81
2021/04/20 06:56:27;;;;;;;13.38;8.10;;;6.60;99.90;;;;;;5033298;28;20028;-82
2021/04/20 06:59:11;;;;;;;11.18;8.70;;;6.50;99.90;;;;;;5033592;28;20488;-81
2021/04/20 07:01:47;;;;;;;11.65;9.48;;;6.50;99.90;;;;;;5033226;28;20021;-81
2021/04/20 07:04:45;;;;;;;14.15;9.73;;;6.70;99.90;;;;;;5015611;28;20032;-81
2021/04/20 07:07:14;;;;;;;13.85;10.60;;;6.70;99.90;;;;;;5015483;28;20124;-81
2021/04/20 07:09:48;;;;;;;11.82;7.72;;;6.80;99.90;;;;;;5015424;28;20393;-81
2021/04/20 07:12:17;;;;;;;15.25;11.45;;;7.00;99.90;;;;;;5015510;28;20032;-82
2021/04/20 07:14:49;;;;;;;13.80;10.82;;;6.90;99.90;;;;;;5033338;28;20075;-82
2021/04/20 07:17:40;;;;;;;16.30;11.63;;;6.90;99.90;;;;;;5033358;28;20029;-81
2021/04/20 07:20:19;;;;;;;13.77;10.23;;;7.00;99.90;;;;;;5015440;28;20092;-82
2021/04/20 07:23:23;;;;;;;11.95;9.05;;;7.10;99.90;;;;;;5033090;28;20116;-81
2021/04/20 07:26:10;;;;;;;15.77;11.33;;;7.20;99.90;;;;;;5015406;28;20021;-82
2021/04/20 07:28:56;;;;;;;13.95;10.75;;;7.30;99.90;;;;;;5015293;28;20048;-81
2021/04/20 07:31:55;;;;;;;12.77;10.32;;;7.50;99.90;;;;;;5036941;28;20017;-81
2021/04/20 07:34:42;;;;;;;16.58;12.43;;;7.70;99.90;;;;;;5019252;28;20032;-82
2021/04/20 07:37:29;;;;;;;19.67;13.57;;;7.90;99.90;;;;;;5037042;28;20528;-82
2021/04/20 07:40:18;;;;;;;17.35;10.27;;;8.00;99.90;;;;;;5018902;28;20022;-81
2021/04/20 07:43:15;;;;;;;20.55;13.65;;;8.20;99.90;;;;;;5005907;28;20036;-82
2021/04/20 07:45:55;;;;;;;22.33;14.25;;;8.30;99.90;;;;;;5018816;28;20033;-82
2021/04/20 07:48:39;;;;;;;23.05;15.27;;;8.40;99.90;;;;;;5036625;28;20576;-82
2021/04/20 07:51:29;;;;;;;19.27;12.82;;;8.40;99.90;;;;;;5036591;28;20021;-82
2021/04/20 07:54:20;;;;;;;23.92;16.13;;;8.60;99.90;;;;;;5036822;28;20037;-82
2021/04/20 07:56:55;;;;;;;21.55;13.77;;;8.70;99.90;;;;;;5018644;28;20107;-82
2021/04/20 07:59:41;;;;;;;18.17;13.32;;;8.90;99.90;;;;;;5018698;28;20114;-82
2021/04/20 08:02:31;;;;;;;22.02;12.95;;;9.00;99.90;;;;;;5018562;28;20053;-81
2021/04/20 08:05:19;;;;;;;20.45;14.20;;;9.10;99.90;;;;;;5018492;28;20108;-81
2021/04/20 08:07:54;;;;;;;24.90;15.50;;;9.20;99.90;;;;;;5018548;28;20046;-82
2021/04/20 08:10:25;;;;;;;26.65;17.00;;;9.30;99.90;;;;;;5018422;28;20439;-82
2021/04/20 08:13:15;;;;;;;25.55;14.50;;;9.40;99.90;;;;;;5018461;28;20026;-82
2021/04/20 08:15:50;;;;;;;16.10;11.93;;;9.50;99.90;;;;;;5036073;28;20160;-82
2021/04/20 08:18:22;;;;;;;23.48;16.30;;;9.80;99.90;;;;;;5036303;28;20044;-81
2021/04/20 08:20:50;;;;;;;25.70;17.75;;;10.00;99.90;;;;;;5036055;28;20052;-82
2021/04/20 08:23:17;;;;;;;15.00;10.18;;;10.10;99.90;;;;;;5036186;28;20101;-85
2021/04/20 08:25:54;;;;;;;27.02;17.63;;;10.20;99.90;;;;;;5043267;28;20021;-85
2021/04/20 08:28:38;;;;;;;17.80;13.20;;;10.50;99.90;;;;;;5022818;28;20028;-86
2021/04/20 08:31:11;;;;;;;18.77;13.65;;;10.60;99.90;;;;;;5023232;28;20044;-85
2021/04/20 08:33:42;;;;;;;20.25;14.73;;;10.50;99.90;;;;;;5018133;28;20025;-86
2021/04/20 08:36:45;;;;;;;24.25;15.80;;;10.80;99.90;;;;;;5035900;28;20032;-86
2021/04/20 08:39:19;;;;;;;18.02;13.23;;;10.90;99.90;;;;;;4972998;28;20083;-85
2021/04/20 08:41:54;;;;;;;20.52;14.90;;;11.10;99.90;;;;;;5016789;28;20075;-87
2021/04/20 08:44:42;;;;;;;30.23;17.13;;;11.30;99.90;;;;;;5014420;28;20128;-86
2021/04/20 08:47:11;;;;;;;24.05;15.13;;;11.50;99.90;;;;;;5017937;28;20037;-85
2021/04/20 08:49:50;;;;;;;15.93;11.85;;;11.70;99.90;;;;;;5023718;28;20041;-85
2021/04/20 08:52:28;;;;;;;24.00;15.43;;;11.70;99.90;;;;;;5021950;28;20065;-85
2021/04/20 08:55:20;;;;;;;23.58;13.05;;;11.80;99.90;;;;;;5016306;28;20029;-89
2021/04/20 08:58:13;;;;;;;15.05;11.45;;;12.00;99.90;;;;;;5018614;28;20080;-84
2021/04/20 09:01:16;;;;;;;13.65;10.00;;;11.90;99.90;;;;;;5019694;28;20025;-85
2021/04/20 09:03:48;;;;;;;23.15;14.30;;;11.90;99.90;;;;;;5019794;28;20026;-83
2021/04/20 09:06:34;;;;;;;21.48;12.40;;;12.00;99.90;;;;;;5020227;28;20040;-85
2021/04/20 09:09:13;;;;;;;17.55;12.25;;;12.20;99.90;;;;;;5020950;28;20030;-85
2021/04/20 09:11:47;;;;;;;19.23;13.77;;;12.10;99.90;;;;;;5021395;28;20076;-85
2021/04/20 09:14:25;;;;;;;19.27;13.97;;;12.10;99.90;;;;;;5019741;28;20029;-85
2021/04/20 09:16:58;;;;;;;15.95;11.10;;;12.20;99.90;;;;;;5017398;28;20504;-85
2021/04/20 09:19:30;;;;;;;14.85;10.60;;;12.50;99.90;;;;;;5015689;28;20377;-85
2021/04/20 09:22:20;;;;;;;14.02;10.27;;;12.60;99.90;;;;;;5014682;28;20113;-85
2021/04/20 09:24:57;;;;;;;15.05;10.40;;;12.70;99.90;;;;;;5015173;28;20098;-85
2021/04/20 09:27:36;;;;;;;19.17;11.23;;;12.80;99.90;;;;;;5019546;28;20028;-85
2021/04/20 09:30:07;;;;;;;13.55;9.30;;;12.80;99.90;;;;;;5017559;28;20026;-85
2021/04/20 09:32:40;;;;;;;12.75;9.10;;;12.80;99.90;;;;;;5020127;28;20061;-85
2021/04/20 09:35:07;;;;;;;18.98;10.25;;;12.70;99.90;;;;;;5021010;28;20025;-85
2021/04/20 09:37:36;;;;;;;10.70;7.82;;;12.80;99.90;;;;;;5017239;28;20026;-85
2021/04/20 09:40:04;;;;;;;19.35;9.40;;;13.10;99.90;;;;;;5018305;28;20025;-84
2021/04/20 09:42:31;;;;;;;10.80;8.38;;;13.20;99.90;;;;;;5016920;28;20057;-84
2021/04/20 09:45:22;;;;;;;12.13;8.27;;;13.50;99.90;;;;;;5016475;28;20084;-85
2021/04/20 09:47:57;;;;;;;12.38;8.60;;;13.90;99.90;;;;;;5016003;28;20041;-85
2021/04/20 09:50:23;;;;;;;13.25;8.18;;;14.10;99.90;;;;;;5015835;28;20030;-85
2021/04/20 09:53:09;;;;;;;12.27;7.93;;;14.00;99.90;;;;;;5016541;28;20022;-84
2021/04/20 09:55:41;;;;;;;15.10;8.48;;;14.00;99.90;;;;;;5018394;28;20054;-85
2021/04/20 09:58:09;;;;;;;11.57;7.93;;;13.90;99.90;;;;;;5015604;28;20087;-85
2021/04/20 10:00:39;;;;;;;11.15;8.27;;;14.10;99.90;;;;;;5015201;28;20029;-84
2021/04/20 10:03:16;;;;;;;13.50;7.45;;;14.10;99.90;;;;;;5015005;28;20112;-85
2021/04/20 10:05:57;;;;;;;9.77;7.65;;;14.40;99.90;;;;;;5015949;28;20037;-85
2021/04/20 10:08:33;;;;;;;8.00;6.28;;;14.40;99.90;;;;;;5016178;28;20492;-85
2021/04/20 10:11:05;;;;;;;10.65;6.75;;;14.50;99.90;;;;;;5013246;28;20060;-85
2021/04/20 10:14:06;;;;;;;8.68;6.15;;;14.50;99.90;;;;;;5014289;28;20485;-85
2021/04/20 10:16:41;;;;;;;9.98;7.10;;;14.80;99.90;;;;;;5012738;28;20037;-85
2021/04/20 10:19:35;;;;;;;8.13;6.45;;;15.10;99.90;;;;;;5012921;28;20022;-85
2021/04/20 10:22:31;;;;;;;9.88;7.15;;;15.30;99.90;;;;;;5001571;28;20060;-85
2021/04/20 10:24:56;;;;;;;11.40;7.10;;;15.70;99.90;;;;;;5013554;28;20034;-86
2021/04/20 10:27:27;;;;;;;7.50;6.10;;;15.50;99.90;;;;;;5012988;28;20045;-85
2021/04/20 10:30:17;;;;;;;10.80;7.45;;;14.50;99.90;;;;;;5012963;28;20026;-85
2021/04/20 10:32:49;;;;;;;10.55;8.07;;;14.00;99.90;;;;;;5012810;28;20430;-84
2021/04/20 10:35:20;;;;;;;11.10;7.47;;;13.90;99.90;;;;;;5012736;28;20022;-87
2021/04/20 10:37:50;;;;;;;10.23;7.47;;;14.80;99.90;;;;;;5012447;28;20474;-85
2021/04/20 10:40:24;;;;;;;9.55;7.35;;;15.40;99.90;;;;;;5012455;28;20025;-85
2021/04/20 10:42:51;;;;;;;10.02;7.70;;;16.20;99.90;;;;;;5015031;28;20113;-85
2021/04/20 10:45:20;;;;;;;8.35;6.40;;;16.90;99.90;;;;;;5015719;28;20026;-83
2021/04/20 10:47:52;;;;;;;10.02;7.40;;;17.10;98.90;;;;;;5015659;28;20026;-85
2021/04/20 10:50:22;;;;;;;9.00;7.22;;;17.10;98.30;;;;;;5015634;28;20025;-83
2021/04/20 10:52:56;;;;;;;11.82;7.13;;;16.90;97.20;;;;;;5015850;28;20021;-85
2021/04/20 10:55:30;;;;;;;10.05;7.47;;;16.70;98.00;;;;;;5015751;28;20370;-85
2021/04/20 10:57:57;;;;;;;11.35;8.73;;;16.10;99.80;;;;;;5015758;28;20128;-85
2021/04/20 11:00:27;;;;;;;8.98;7.03;;;16.00;98.00;;;;;;5015670;28;20025;-86
2021/04/20 11:02:57;;;;;;;11.82;6.93;;;15.50;99.70;;;;;;5015543;28;20388;-85
2021/04/20 11:05:23;;;;;;;8.45;6.05;;;16.80;98.30;;;;;;5014854;28;20502;-86
2021/04/20 11:07:50;;;;;;;10.65;6.55;;;17.10;98.20;;;;;;5015496;28;20079;-85
2021/04/20 11:10:17;;;;;;;9.63;6.80;;;16.70;97.00;;;;;;5015760;28;20076;-85
2021/04/20 11:12:45;;;;;;;8.02;5.95;;;16.80;96.30;;;;;;5016062;28;20029;-85
2021/04/20 11:15:21;;;;;;;10.85;6.25;;;17.20;95.90;;;;;;5016277;28;20064;-85
2021/04/20 11:17:56;;;;;;;9.07;6.63;;;17.00;96.00;;;;;;5015790;28;20026;-85
2021/04/20 11:20:42;;;;;;;10.98;6.80;;;16.70;95.40;;;;;;5015710;28;20026;-86
2021/04/20 11:23:11;;;;;;;9.00;6.40;;;16.70;95.10;;;;;;5015902;28;20030;-85
2021/04/20 11:25:54;;;;;;;7.05;5.47;;;16.50;95.50;;;;;;5033182;28;20025;-85
2021/04/20 11:28:39;;;;;;;9.05;6.20;;;16.10;95.50;;;;;;5015841;28;20024;-85
2021/04/20 11:31:09;;;;;;;;;;;15.70;96.70;;;;;;5015936;28;20026;-85
2021/04/20 11:33:38;;;;;;;10.13;7.07;;;15.50;96.50;;;;;;5015299;28;19905;-84
2021/04/20 11:36:19;;;;;;;8.45;6.57;;;15.50;96.10;;;;;;5015977;28;20025;-84
2021/04/20 11:38:48;;;;;;;7.47;5.32;;;16.40;95.90;;;;;;5015792;28;20029;-85
2021/04/20 11:41:26;;;;;;;9.23;7.03;;;16.80;94.60;;;;;;5015939;28;20033;-86
2021/04/20 11:43:59;;;;;;;9.10;6.30;;;16.80;95.10;;;;;;5015123;28;20067;-85
2021/04/20 11:46:27;;;;;;;9.13;6.03;;;16.30;94.50;;;;;;5016006;28;20141;-84
2021/04/20 11:48:56;;;;;;;7.25;5.45;;;15.90;94.10;;;;;;5015170;28;20026;-85
2021/04/20 11:51:32;;;;;;;11.60;7.85;;;15.70;94.90;;;;;;5015938;28;20034;-85
2021/04/20 11:53:59;;;;;;;8.63;6.78;;;15.70;96.40;;;;;;5018578;28;20038;-86
2021/04/20 11:56:25;;;;;;;10.30;7.22;;;16.40;95.40;;;;;;5017962;28;20057;-85
2021/04/20 11:58:57;;;;;;;10.45;7.22;;;16.30;94.50;;;;;;5033951;28;20026;-85
2021/04/20 12:01:23;;;;;;;8.07;6.05;;;16.10;95.00;;;;;;5016599;28;20026;-85
2021/04/20 12:04:01;;;;;;;6.80;5.80;;;15.80;95.80;;;;;;5035720;28;20025;-85
2021/04/20 12:06:57;;;;;;;6.97;6.03;;;16.10;95.80;;;;;;5019123;28;20061;-85
2021/04/20 12:09:25;;;;;;;7.63;5.30;;;16.30;93.20;;;;;;4997099;28;20100;-85
2021/04/20 12:11:53;;;;;;;9.43;6.03;;;15.90;93.80;;;;;;5019723;28;20032;-85
2021/04/20 12:14:20;;;;;;;12.40;5.60;;;16.60;93.50;;;;;;5037347;28;20025;-85
2021/04/20 12:16:48;;;;;;;8.25;6.25;;;17.20;92.80;;;;;;5020526;28;20036;-85
2021/04/20 12:19:19;;;;;;;14.00;8.35;;;16.60;93.30;;;;;;5037607;28;20171;-85
2021/04/20 12:21:47;;;;;;;11.10;8.40;;;16.10;95.60;;;;;;5038844;28;20021;-85
2021/04/20 12:24:22;;;;;;;13.98;9.40;;;16.00;96.60;;;;;;5039392;28;20025;-85
2021/04/20 12:27:01;;;;;;;13.15;9.52;;;15.80;97.30;;;;;;5022448;28;20017;-85
2021/04/20 12:29:44;;;;;;;10.30;9.02;;;15.70;97.10;;;;;;5024343;28;20128;-84
2021/04/20 12:32:17;;;;;;;13.32;9.40;;;15.30;97.20;;;;;;5025749;28;20087;-85
2021/04/20 12:34:44;;;;;;;10.05;8.20;;;15.20;98.00;;;;;;5024811;28;20022;-86
2021/04/20 12:37:11;;;;;;;12.13;8.20;;;15.90;98.40;;;;;;5022187;28;20075;-86
2021/04/20 12:39:46;;;;;;;14.57;7.40;;;16.40;96.20;;;;;;5041487;28;20085;-85
2021/04/20 12:42:17;;;;;;;12.82;7.32;;;16.00;96.50;;;;;;5021796;28;20030;-85
2021/04/20 12:44:47;;;;;;;11.80;7.38;;;15.70;96.20;;;;;;5040955;28;20080;-85
2021/04/20 12:47:15;;;;;;;12.52;8.10;;;15.50;96.90;;;;;;5023482;28;20029;-85
2021/04/20 12:49:47;;;;;;;10.55;7.63;;;15.20;98.00;;;;;;5023933;28;20029;-85
2021/04/20 12:52:19;;;;;;;12.88;7.95;;;15.10;98.30;;;;;;5025774;28;20161;-85
2021/04/20 12:54:53;;;;;;;15.82;9.38;;;14.90;98.90;;;;;;5025500;28;20033;-85
2021/04/20 12:57:19;;;;;;;12.20;8.10;;;14.90;99.40;;;;;;5024533;28;20026;-85
2021/04/20 12:59:53;;;;;;;14.25;7.43;;;15.30;99.10;;;;;;5022058;28;20026;-85
2021/04/20 13:02:20;;;;;;;9.77;6.30;;;17.20;99.90;;;;;;5018225;28;20477;-86
2021/04/20 13:04:47;;;;;;;9.32;6.50;;;17.80;95.60;;;;;;5017473;28;20026;-85
2021/04/20 13:07:14;;;;;;;9.70;6.13;;;18.00;93.40;;;;;;5035159;28;20079;-85